City Of Vicksburg — WDC2660 — position and weather

sailwx.info

Track history (hours):
 
Tides and Currents Weather Stations Pressure Air Temp Water Temp Dewpoint Dewpoint Depression Visibility Wind Speed Wind Dir Waves Ship Positions

City Of Vicksburg

Owner: Kirby Inland Marine LP, Houston, TX. More information available from US FCC via Universal Licensing System and Coast Guard Vessel Documentation Center.

Last reported at 2017-Jul-23 14:09 UTC. Time now 2017-Aug-23 11:38 UTC.
Position N 32°40' W 091°08'.
Warning: this ship's position is 30 days out of date.

Length 348 m; draft 2.9 m.

Type: . MMSI: 366996120.

Date/timePositionNaut miles runAvg speedWind from/ knotsBaromVisibWave heightAir tempDewpointWater temp
2017-Jul-23 14:09N 32°40' W 091°08'0 3.4
2017-Jul-23 14:00N 32°40' W 091°08'2 4.1
2017-Jul-23 13:27N 32°38' W 091°09'1 2.9
2017-Jul-23 13:00N 32°37' W 091°09'0 0.0
2017-Jul-23 12:30N 32°37' W 091°09'0 0.0
2017-Jul-23 12:00N 32°37' W 091°09'0 0.0
2017-Jul-23 11:30N 32°37' W 091°09'0 0.0
2017-Jul-23 11:00N 32°37' W 091°09'0 0.0
2017-Jul-23 10:30N 32°37' W 091°09'0 0.0
2017-Jul-23 10:00N 32°37' W 091°09'0 0.1
2017-Jul-23 09:30N 32°36' W 091°09'0 0.1
2017-Jul-23 09:00N 32°36' W 091°09'1 1.5
2017-Jul-23 08:30N 32°36' W 091°08'2 4.4
2017-Jul-23 08:00N 32°34' W 091°07'2 3.8
2017-Jul-23 07:30N 32°32' W 091°06'2 4.7
2017-Jul-23 07:00N 32°30' W 091°07'2 4.5
2017-Jul-23 06:30N 32°28' W 091°06'2 4.6
2017-Jul-23 06:00N 32°27' W 091°04'2 4.5
2017-Jul-23 05:30N 32°26' W 091°02'2 4.2
2017-Jul-23 05:00N 32°25' W 090°60'2 3.6
2017-Jul-23 04:30N 32°23' W 090°60'1 2.4
2017-Jul-23 04:00N 32°22' W 091°00'0 0.5
2017-Jul-23 03:30N 32°22' W 091°00'0 0.4
2017-Jul-23 03:00N 32°22' W 091°00'1 1.6
2017-Jul-23 02:30N 32°21' W 090°60'2 4.0
2017-Jul-23 02:00N 32°21' W 090°57'1 1.6
2017-Jul-23 01:30N 32°21' W 090°56'1 2.4
2017-Jul-23 01:00N 32°21' W 090°55'2 3.5
2017-Jul-23 00:30N 32°19' W 090°54'2 4.4
2017-Jul-23 00:00N 32°18' W 090°56'2 4.5
2017-Jul-22 23:30N 32°16' W 090°58'2 4.1
2017-Jul-22 23:00N 32°14' W 090°59'2 4.8
2017-Jul-22 22:29N 32°12' W 090°60'2 4.1
2017-Jul-22 22:00N 32°10' W 091°00'2 4.5
2017-Jul-22 21:30N 32°08' W 091°01'2 3.8
2017-Jul-22 21:00N 32°07' W 091°03'2 4.5
2017-Jul-22 20:30N 32°08' W 091°06'2 3.5
2017-Jul-22 20:00N 32°06' W 091°06'4 3.7
2017-Jul-22 18:57N 32°03' W 091°03'2 3.6
2017-Jul-22 18:29N 32°02' W 091°04'0 0.7
2017-Jul-22 17:58N 32°01' W 091°04'1 1.3
2017-Jul-22 17:30N 32°01' W 091°05'6 3.9
2017-Jul-22 16:04N 31°59' W 091°11'0 4.4
2017-Jul-22 16:00N 31°58' W 091°11'11 4.0
2017-Jul-22 13:12N 31°51' W 091°21'1 4.0
2017-Jul-22 12:56N 31°50' W 091°21'  
2017-Jul-19 02:23N 31°41' W 091°24'6 7.2
2017-Jul-19 01:32N 31°47' W 091°22'1 7.6
2017-Jul-19 01:24N 31°48' W 091°22'3 7.8
2017-Jul-19 01:00N 31°51' W 091°21'10 6.4
2017-Jul-18 23:24N 31°58' W 091°11'5 6.8
2017-Jul-18 22:41N 31°59' W 091°06'2 7.4
2017-Jul-18 22:27N 32°01' W 091°05'4 6.7
2017-Jul-18 21:48N 32°05' W 091°05'2 7.9
2017-Jul-18 21:31N 32°07' W 091°06'3 5.0
2017-Jul-18 20:59N 32°08' W 091°04'3 6.3
2017-Jul-18 20:31N 32°09' W 091°00'4 7.7
2017-Jul-18 20:00N 32°13' W 090°59'4 7.3
2017-Jul-18 19:30N 32°16' W 090°58'3 6.8
2017-Jul-18 19:01N 32°18' W 090°55'3 5.3
2017-Jul-18 18:31N 32°21' W 090°56'4 7.4
2017-Jul-18 18:01N 32°21' W 091°00'4 7.3
2017-Jul-18 17:31N 32°25' W 090°60'4 7.5
2017-Jul-18 17:01N 32°26' W 091°04'4 7.5
2017-Jul-18 16:31N 32°29' W 091°07'4 7.9
2017-Jul-18 16:00N 32°33' W 091°06'4 7.4
2017-Jul-18 15:31N 32°36' W 091°09'4 7.4
2017-Jul-18 15:00N 32°40' W 091°08'5 3.2
2017-Jul-18 13:31N 32°44' W 091°09'1 7.8
2017-Jul-18 13:27N 32°45' W 091°09'5 7.3
2017-Jul-18 12:48N 32°50' W 091°09'2 8.1
2017-Jul-18 12:31N 32°51' W 091°07'  
Track history (hours):
 
Tides and Currents Weather Stations Pressure Air Temp Water Temp Dewpoint Dewpoint Depression Visibility Wind Speed Wind Dir Waves Ship Positions

City Of Vicksburg

Owner: Kirby Inland Marine LP, Houston, TX. More information available from US FCC via Universal Licensing System and Coast Guard Vessel Documentation Center.

Last reported at 2017-Jul-23 14:09 UTC. Time now 2017-Aug-23 11:38 UTC.
Position N 32°40' W 091°08'.
Warning: this ship's position is 30 days out of date.

Length 348 m; draft 2.9 m.

Type: . MMSI: 366996120.

Date/timePositionNaut miles runAvg speedWind from/ knotsBaromVisibWave heightAir tempDewpointWater temp
2017-Jul-23 14:09N 32°40' W 091°08'0 3.4
2017-Jul-23 14:00N 32°40' W 091°08'2 4.1
2017-Jul-23 13:27N 32°38' W 091°09'1 2.9
2017-Jul-23 13:00N 32°37' W 091°09'0 0.0
2017-Jul-23 12:30N 32°37' W 091°09'0 0.0
2017-Jul-23 12:00N 32°37' W 091°09'0 0.0
2017-Jul-23 11:30N 32°37' W 091°09'0 0.0
2017-Jul-23 11:00N 32°37' W 091°09'0 0.0
2017-Jul-23 10:30N 32°37' W 091°09'0 0.0
2017-Jul-23 10:00N 32°37' W 091°09'0 0.1
2017-Jul-23 09:30N 32°36' W 091°09'0 0.1
2017-Jul-23 09:00N 32°36' W 091°09'1 1.5
2017-Jul-23 08:30N 32°36' W 091°08'2 4.4
2017-Jul-23 08:00N 32°34' W 091°07'2 3.8
2017-Jul-23 07:30N 32°32' W 091°06'2 4.7
2017-Jul-23 07:00N 32°30' W 091°07'2 4.5
2017-Jul-23 06:30N 32°28' W 091°06'2 4.6
2017-Jul-23 06:00N 32°27' W 091°04'2 4.5
2017-Jul-23 05:30N 32°26' W 091°02'2 4.2
2017-Jul-23 05:00N 32°25' W 090°60'2 3.6
2017-Jul-23 04:30N 32°23' W 090°60'1 2.4
2017-Jul-23 04:00N 32°22' W 091°00'0 0.5
2017-Jul-23 03:30N 32°22' W 091°00'0 0.4
2017-Jul-23 03:00N 32°22' W 091°00'1 1.6
2017-Jul-23 02:30N 32°21' W 090°60'2 4.0
2017-Jul-23 02:00N 32°21' W 090°57'1 1.6
2017-Jul-23 01:30N 32°21' W 090°56'1 2.4
2017-Jul-23 01:00N 32°21' W 090°55'2 3.5
2017-Jul-23 00:30N 32°19' W 090°54'2 4.4
2017-Jul-23 00:00N 32°18' W 090°56'2 4.5
2017-Jul-22 23:30N 32°16' W 090°58'2 4.1
2017-Jul-22 23:00N 32°14' W 090°59'2 4.8
2017-Jul-22 22:29N 32°12' W 090°60'2 4.1
2017-Jul-22 22:00N 32°10' W 091°00'2 4.5
2017-Jul-22 21:30N 32°08' W 091°01'2 3.8
2017-Jul-22 21:00N 32°07' W 091°03'2 4.5
2017-Jul-22 20:30N 32°08' W 091°06'2 3.5
2017-Jul-22 20:00N 32°06' W 091°06'4 3.7
2017-Jul-22 18:57N 32°03' W 091°03'2 3.6
2017-Jul-22 18:29N 32°02' W 091°04'0 0.7
2017-Jul-22 17:58N 32°01' W 091°04'1 1.3
2017-Jul-22 17:30N 32°01' W 091°05'6 3.9
2017-Jul-22 16:04N 31°59' W 091°11'0 4.4
2017-Jul-22 16:00N 31°58' W 091°11'11 4.0
2017-Jul-22 13:12N 31°51' W 091°21'1 4.0
2017-Jul-22 12:56N 31°50' W 091°21'  
2017-Jul-19 02:23N 31°41' W 091°24'6 7.2
2017-Jul-19 01:32N 31°47' W 091°22'1 7.6
2017-Jul-19 01:24N 31°48' W 091°22'3 7.8
2017-Jul-19 01:00N 31°51' W 091°21'10 6.4
2017-Jul-18 23:24N 31°58' W 091°11'5 6.8
2017-Jul-18 22:41N 31°59' W 091°06'2 7.4
2017-Jul-18 22:27N 32°01' W 091°05'4 6.7
2017-Jul-18 21:48N 32°05' W 091°05'2 7.9
2017-Jul-18 21:31N 32°07' W 091°06'3 5.0
2017-Jul-18 20:59N 32°08' W 091°04'3 6.3
2017-Jul-18 20:31N 32°09' W 091°00'4 7.7
2017-Jul-18 20:00N 32°13' W 090°59'4 7.3
2017-Jul-18 19:30N 32°16' W 090°58'3 6.8
2017-Jul-18 19:01N 32°18' W 090°55'3 5.3
2017-Jul-18 18:31N 32°21' W 090°56'4 7.4
2017-Jul-18 18:01N 32°21' W 091°00'4 7.3
2017-Jul-18 17:31N 32°25' W 090°60'4 7.5
2017-Jul-18 17:01N 32°26' W 091°04'4 7.5
2017-Jul-18 16:31N 32°29' W 091°07'4 7.9
2017-Jul-18 16:00N 32°33' W 091°06'4 7.4
2017-Jul-18 15:31N 32°36' W 091°09'4 7.4
2017-Jul-18 15:00N 32°40' W 091°08'5 3.2
2017-Jul-18 13:31N 32°44' W 091°09'1 7.8
2017-Jul-18 13:27N 32°45' W 091°09'5 7.3
2017-Jul-18 12:48N 32°50' W 091°09'2 8.1
2017-Jul-18 12:31N 32°51' W 091°07'  

Dump ship's entire track history